createdAt,value
2023-03-16T00:01:15.252Z,0.40
2023-03-16T00:03:44.677Z,0.40
2023-03-16T00:06:14.122Z,0.30
2023-03-16T00:08:43.515Z,0.60
2023-03-16T00:11:12.953Z,0.60
2023-03-16T00:13:42.745Z,0.40
2023-03-16T00:16:13.841Z,0.47
2023-03-16T00:18:44.179Z,0.30
2023-03-16T00:21:15.787Z,0.40
2023-03-16T00:23:45.197Z,0.43
2023-03-16T00:26:14.901Z,0.40
2023-03-16T00:28:44.312Z,0.43
2023-03-16T00:31:15.125Z,0.40
2023-03-16T00:33:44.574Z,0.33
2023-03-16T00:36:14.389Z,0.37
2023-03-16T00:38:49.116Z,0.40
2023-03-16T00:41:18.605Z,0.87
2023-03-16T00:43:48.796Z,0.30
2023-03-16T00:46:19.722Z,0.30
2023-03-16T00:48:49.450Z,0.30
2023-03-16T00:51:22.444Z,0.40
2023-03-16T00:53:52.228Z,0.30
2023-03-16T00:56:21.649Z,0.40
2023-03-16T00:58:51.062Z,0.40
2023-03-16T01:01:22.061Z,0.60
2023-03-16T01:03:52.278Z,0.40
2023-03-16T01:06:22.206Z,0.77
2023-03-16T01:08:52.394Z,0.50
2023-03-16T01:11:24.723Z,0.40
2023-03-16T01:13:54.301Z,0.33
2023-03-16T01:16:23.748Z,0.30
2023-03-16T01:18:53.784Z,0.30
2023-03-16T01:21:24.135Z,0.20
2023-03-16T01:23:54.280Z,0.30
2023-03-16T01:26:25.194Z,0.30
2023-03-16T01:28:54.861Z,0.50
2023-03-16T01:31:24.786Z,0.30
2023-03-16T01:33:54.204Z,0.70
2023-03-16T01:36:23.996Z,0.30
2023-03-16T01:38:53.977Z,0.30
2023-03-16T01:41:23.395Z,0.50
2023-03-16T01:43:53.691Z,0.33
2023-03-16T01:46:32.771Z,0.40
2023-03-16T01:49:33.372Z,0.40
2023-03-16T01:52:07.398Z,0.30
2023-03-16T01:54:59.155Z,0.20
2023-03-16T01:57:37.050Z,0.20
2023-03-16T02:00:11.211Z,0.37
2023-03-16T02:02:45.130Z,0.30
2023-03-16T02:05:31.187Z,0.30
2023-03-16T02:08:01.745Z,0.43
2023-03-16T02:10:32.283Z,1.17
2023-03-16T02:13:02.196Z,0.27
2023-03-16T02:15:32.619Z,0.33
2023-03-16T02:18:02.234Z,0.40
2023-03-16T02:20:50.795Z,0.40
2023-03-16T02:23:24.209Z,0.40
2023-03-16T02:26:27.039Z,0.30
2023-03-16T02:29:12.893Z,0.40
2023-03-16T02:31:42.481Z,0.30
2023-03-16T02:34:14.701Z,0.63
2023-03-16T02:36:48.738Z,0.30
2023-03-16T02:39:18.152Z,0.50
2023-03-16T02:41:48.991Z,0.30
2023-03-16T02:44:33.323Z,0.30
2023-03-16T02:47:07.362Z,0.40
2023-03-16T02:49:41.384Z,0.30
2023-03-16T02:52:12.508Z,1.03
2023-03-16T02:54:41.988Z,0.20
2023-03-16T02:57:11.540Z,0.30
2023-03-16T02:59:41.613Z,0.40
2023-03-16T03:02:11.420Z,0.42
2023-03-16T03:04:40.798Z,0.30
2023-03-16T03:07:10.241Z,0.60
2023-03-16T03:09:39.715Z,0.40
2023-03-16T03:12:13.078Z,0.37
2023-03-16T03:14:42.513Z,0.50
2023-03-16T03:17:13.534Z,0.40
2023-03-16T03:19:43.244Z,0.50
2023-03-16T03:22:12.743Z,0.30
2023-03-16T03:24:42.157Z,0.30
2023-03-16T03:27:11.584Z,0.50
2023-03-16T03:29:41.049Z,0.30
2023-03-16T03:32:10.634Z,0.50
2023-03-16T03:34:40.055Z,0.30
2023-03-16T03:37:09.481Z,0.73
2023-03-16T03:39:40.405Z,0.40
2023-03-16T03:42:09.857Z,0.37
2023-03-16T03:48:27.472Z,0.97
2023-03-16T03:50:57.054Z,0.50
2023-03-16T03:53:26.721Z,1.33
2023-03-16T03:55:56.920Z,1.67
2023-03-16T03:58:26.330Z,0.73
2023-03-16T04:00:55.752Z,0.83
2023-03-16T04:03:25.248Z,0.70
2023-03-16T04:05:54.698Z,0.83
2023-03-16T04:08:24.112Z,0.50
2023-03-16T04:10:53.541Z,0.30
2023-03-16T04:13:22.959Z,0.40
2023-03-16T04:16:03.202Z,0.33
2023-03-16T04:18:38.498Z,0.40
2023-03-16T04:21:12.749Z,0.63
2023-03-16T04:23:42.514Z,0.43
2023-03-16T04:26:12.356Z,0.27
2023-03-16T04:28:43.323Z,0.40
2023-03-16T04:31:13.340Z,0.50
2023-03-16T04:33:43.613Z,0.70
2023-03-16T04:36:13.143Z,0.63
2023-03-16T04:38:42.799Z,0.50
2023-03-16T04:41:12.302Z,0.70
2023-03-16T04:43:43.191Z,1.20
2023-03-16T04:46:12.744Z,0.50
2023-03-16T04:48:42.175Z,0.60
2023-03-16T04:51:11.770Z,0.63
2023-03-16T04:53:41.191Z,0.80
2023-03-16T04:56:12.412Z,0.63
2023-03-16T04:58:41.817Z,0.70
2023-03-16T05:01:11.288Z,0.70
2023-03-16T05:03:40.815Z,0.73
2023-03-16T05:06:10.323Z,0.60
2023-03-16T05:08:40.109Z,0.53
2023-03-16T05:11:09.624Z,0.67
2023-03-16T05:13:39.078Z,0.60
2023-03-16T05:16:08.761Z,0.80
2023-03-16T05:18:38.229Z,1.30
2023-03-16T05:21:07.905Z,0.57
2023-03-16T05:23:37.315Z,0.67
2023-03-16T05:26:07.585Z,1.00
2023-03-16T05:28:37.141Z,0.80
2023-03-16T05:31:06.951Z,0.40
2023-03-16T05:33:36.513Z,0.60
2023-03-16T05:36:06.600Z,0.60
2023-03-16T05:38:36.755Z,0.53
2023-03-16T05:41:06.553Z,0.70
2023-03-16T05:43:35.946Z,0.70
2023-03-16T05:46:05.552Z,1.23
2023-03-16T05:48:35.681Z,0.97
2023-03-16T05:51:06.002Z,0.60
2023-03-16T05:53:36.200Z,0.97
2023-03-16T05:56:05.998Z,0.73
2023-03-16T05:58:35.407Z,0.80
2023-03-16T06:01:05.987Z,0.60
2023-03-16T06:03:35.442Z,1.00
2023-03-16T06:06:04.973Z,0.60
2023-03-16T06:08:34.405Z,0.93
2023-03-16T06:11:04.212Z,0.70
2023-03-16T06:13:33.612Z,1.67
2023-03-16T06:16:04.215Z,0.53
2023-03-16T06:18:34.731Z,0.50
2023-03-16T06:21:04.648Z,1.17
2023-03-16T06:23:34.414Z,0.90
2023-03-16T06:26:03.862Z,0.77
2023-03-16T06:28:33.461Z,0.80
2023-03-16T06:31:02.941Z,0.80
2023-03-16T06:33:32.435Z,0.90
2023-03-16T06:36:01.982Z,0.70
2023-03-16T06:38:31.813Z,1.10
2023-03-16T06:41:02.074Z,1.10
2023-03-16T06:43:31.456Z,0.53
2023-03-16T06:46:01.800Z,1.47
2023-03-16T06:48:31.809Z,1.30
2023-03-16T06:51:01.382Z,2.00
2023-03-16T06:53:31.075Z,1.17
2023-03-16T06:56:01.204Z,1.33
2023-03-16T06:58:31.162Z,0.80
2023-03-16T07:01:05.786Z,1.20
2023-03-16T07:03:35.244Z,1.43
2023-03-16T07:06:05.940Z,2.33
2023-03-16T07:08:35.322Z,0.90
2023-03-16T07:11:04.755Z,1.77
2023-03-16T07:13:35.440Z,1.40
2023-03-16T07:16:05.503Z,1.30
2023-03-16T07:18:36.991Z,1.50
2023-03-16T07:21:06.911Z,1.23
2023-03-16T07:23:36.349Z,1.03
2023-03-16T07:26:07.428Z,1.50
2023-03-16T07:28:37.241Z,1.27
2023-03-16T07:31:09.389Z,1.33
2023-03-16T07:33:38.947Z,0.60
2023-03-16T07:36:10.702Z,1.03
2023-03-16T07:38:40.306Z,1.37
2023-03-16T07:41:09.829Z,0.80
2023-03-16T07:43:39.245Z,1.13
2023-03-16T07:46:08.742Z,0.77
2023-03-16T07:48:38.132Z,1.80
2023-03-16T07:51:07.825Z,0.80
2023-03-16T07:53:37.321Z,0.77
2023-03-16T07:56:07.378Z,1.97
2023-03-16T07:58:36.805Z,0.87
2023-03-16T08:01:06.398Z,0.97
2023-03-16T08:03:36.121Z,0.37
2023-03-16T08:06:05.841Z,0.40
2023-03-16T08:08:36.145Z,0.50
2023-03-16T08:11:05.594Z,0.53
2023-03-16T08:13:35.439Z,0.60
2023-03-16T08:16:05.590Z,0.80
2023-03-16T08:18:35.023Z,1.67
2023-03-16T08:21:04.898Z,1.17
2023-03-16T08:23:34.369Z,0.80
2023-03-16T08:26:05.487Z,1.03
2023-03-16T08:28:35.901Z,0.70
2023-03-16T08:31:08.913Z,0.33
2023-03-16T08:33:38.686Z,1.30
2023-03-16T08:36:10.180Z,1.23
2023-03-16T08:38:40.631Z,0.83
2023-03-16T08:41:12.513Z,0.60
2023-03-16T08:43:42.285Z,0.83
2023-03-16T08:46:13.315Z,0.70
2023-03-16T08:48:44.326Z,1.20
2023-03-16T08:51:13.838Z,0.70
2023-03-16T08:53:44.153Z,0.63
2023-03-16T08:56:15.631Z,1.07
2023-03-16T08:58:46.088Z,0.57
2023-03-16T09:01:19.474Z,0.63
2023-03-16T09:03:49.241Z,0.40
2023-03-16T09:06:20.007Z,1.47
2023-03-16T09:08:49.459Z,1.27
2023-03-16T09:11:22.110Z,0.63
2023-03-16T09:13:53.188Z,1.10
2023-03-16T09:16:24.522Z,1.17
2023-03-16T09:18:56.533Z,1.20
2023-03-16T09:21:25.991Z,1.23
2023-03-16T09:23:56.266Z,0.73
2023-03-16T09:26:25.985Z,0.73
2023-03-16T09:28:56.113Z,0.60
2023-03-16T09:31:25.591Z,0.30
2023-03-16T09:33:55.094Z,1.33
2023-03-16T09:36:24.522Z,1.37
2023-03-16T09:38:54.487Z,0.70
2023-03-16T09:41:59.019Z,1.00
2023-03-16T09:44:53.648Z,0.77
2023-03-16T09:47:28.015Z,1.00
2023-03-16T09:50:02.435Z,0.47
2023-03-16T09:52:55.672Z,0.47
2023-03-16T09:55:40.522Z,0.80
2023-03-16T09:58:22.600Z,0.63
2023-03-16T10:01:19.121Z,1.03
2023-03-16T10:04:31.603Z,0.70
2023-03-16T10:07:34.332Z,0.97
2023-03-16T10:10:11.057Z,0.73
2023-03-16T10:12:45.606Z,1.13
2023-03-16T10:15:19.897Z,0.57
2023-03-16T10:18:10.032Z,1.13
2023-03-16T10:20:42.001Z,0.57
2023-03-16T10:23:24.912Z,1.47
2023-03-16T10:25:58.738Z,0.87
2023-03-16T10:28:32.258Z,0.53
2023-03-16T10:31:04.239Z,2.17
2023-03-16T10:33:36.735Z,0.97
2023-03-16T10:36:28.437Z,0.67
2023-03-16T10:39:17.827Z,0.40
2023-03-16T10:41:51.445Z,0.70
2023-03-16T10:44:49.696Z,1.33
2023-03-16T10:47:26.037Z,1.60
2023-03-16T10:49:55.814Z,0.70
2023-03-16T10:52:40.132Z,0.43
2023-03-16T10:55:19.726Z,0.47
2023-03-16T10:57:55.716Z,0.60
2023-03-16T11:00:41.493Z,0.97
2023-03-16T11:03:32.646Z,1.10
2023-03-16T11:06:07.480Z,0.40
2023-03-16T11:08:41.661Z,0.63
2023-03-16T11:11:21.459Z,0.77
2023-03-16T11:13:51.453Z,2.73
2023-03-16T11:16:42.687Z,1.00
2023-03-16T11:19:22.838Z,0.87
2023-03-16T11:21:59.878Z,1.53
2023-03-16T11:24:55.450Z,1.50
2023-03-16T11:27:47.080Z,0.37
2023-03-16T11:30:23.956Z,0.50
2023-03-16T11:32:54.845Z,0.67
2023-03-16T11:35:58.138Z,1.07
2023-03-16T11:38:32.458Z,0.47
2023-03-16T11:41:10.526Z,1.07
2023-03-16T11:43:57.108Z,0.70
2023-03-16T11:46:34.588Z,1.17
2023-03-16T11:49:24.560Z,1.60
2023-03-16T11:52:07.399Z,1.37
2023-03-16T11:55:02.722Z,0.97
2023-03-16T11:58:02.757Z,0.87
2023-03-16T12:00:42.608Z,1.90
2023-03-16T12:03:50.479Z,0.63
2023-03-16T12:06:39.085Z,1.57
2023-03-16T12:09:35.721Z,1.10
2023-03-16T12:12:18.676Z,2.17
2023-03-16T12:15:05.177Z,0.93
2023-03-16T12:17:38.354Z,1.30
2023-03-16T12:20:21.243Z,1.83
2023-03-16T12:23:01.259Z,1.23
2023-03-16T12:25:38.073Z,0.60
2023-03-16T12:28:21.103Z,0.67
2023-03-16T12:31:16.558Z,0.63
2023-03-16T12:34:23.724Z,0.73
2023-03-16T12:37:14.519Z,1.27
2023-03-16T12:40:01.837Z,0.40
2023-03-16T12:42:47.003Z,0.90
2023-03-16T12:45:30.283Z,0.67
2023-03-16T12:48:12.637Z,1.83
2023-03-16T12:51:01.361Z,0.87
2023-03-16T12:53:55.488Z,1.07
2023-03-16T12:56:38.266Z,1.17
2023-03-16T12:59:10.442Z,1.97
2023-03-16T13:01:45.952Z,1.40
2023-03-16T13:04:22.239Z,0.90
2023-03-16T13:07:07.742Z,0.73
2023-03-16T13:09:44.698Z,1.73
2023-03-16T13:12:28.070Z,1.13
2023-03-16T13:14:57.865Z,1.33
2023-03-16T13:17:37.224Z,0.87
2023-03-16T13:20:33.925Z,1.60
2023-03-16T13:23:27.819Z,1.27
2023-03-16T13:26:14.457Z,0.97
2023-03-16T13:28:48.060Z,1.00
2023-03-16T13:31:25.594Z,1.87
2023-03-16T13:33:59.639Z,0.50
2023-03-16T13:36:31.857Z,0.50
2023-03-16T13:39:23.801Z,1.50
2023-03-16T13:42:04.973Z,1.12
2023-03-16T13:44:35.153Z,1.63
2023-03-16T13:47:07.491Z,1.03
2023-03-16T13:49:53.401Z,1.03
2023-03-16T13:52:33.331Z,1.57
2023-03-16T13:55:10.143Z,1.20
2023-03-16T13:57:42.975Z,1.50
2023-03-16T14:00:32.585Z,0.80
2023-03-16T14:03:11.513Z,0.70
2023-03-16T14:05:41.372Z,1.63
2023-03-16T14:08:21.102Z,1.13
2023-03-16T14:10:52.348Z,0.73
2023-03-16T14:13:36.765Z,1.67
2023-03-16T14:16:20.886Z,0.80
2023-03-16T14:18:58.014Z,1.43
2023-03-16T14:21:30.972Z,0.93
2023-03-16T14:24:10.012Z,0.30
2023-03-16T14:26:46.538Z,1.90
2023-03-16T14:29:31.717Z,0.80
2023-03-16T14:32:01.619Z,1.30
2023-03-16T14:34:36.923Z,0.50
2023-03-16T14:37:17.924Z,1.10
2023-03-16T14:39:50.139Z,0.70
2023-03-16T14:42:28.651Z,0.97
2023-03-16T14:45:02.048Z,1.07
2023-03-16T14:47:35.175Z,1.07
2023-03-16T14:50:18.801Z,1.07
2023-03-16T14:52:50.493Z,0.77
2023-03-16T14:55:23.516Z,1.70
2023-03-16T14:57:53.237Z,1.20
2023-03-16T15:00:23.998Z,1.53
2023-03-16T15:03:05.081Z,0.43
2023-03-16T15:05:39.061Z,1.27
2023-03-16T15:08:19.056Z,1.07
2023-03-16T15:10:48.548Z,0.93
2023-03-16T15:13:39.565Z,0.43
2023-03-16T15:16:11.948Z,0.70
2023-03-16T15:18:42.718Z,0.97
2023-03-16T15:21:16.867Z,1.03
2023-03-16T15:23:47.271Z,2.27
2023-03-16T15:26:24.476Z,0.87
2023-03-16T15:28:52.975Z,0.77
2023-03-16T15:31:23.058Z,0.70
2023-03-16T15:33:52.571Z,0.67
2023-03-16T15:36:24.875Z,0.73
2023-03-16T15:38:56.803Z,1.27
2023-03-16T15:41:30.092Z,0.83
2023-03-16T15:43:59.169Z,0.50
2023-03-16T15:46:29.500Z,1.73
2023-03-16T15:48:58.981Z,1.27
2023-03-16T15:51:32.005Z,1.30
2023-03-16T15:54:05.941Z,0.97
2023-03-16T15:56:53.205Z,0.33
2023-03-16T15:59:20.685Z,0.77
2023-03-16T16:01:51.706Z,2.03
2023-03-16T16:04:25.047Z,1.30
2023-03-16T16:06:55.647Z,2.53
2023-03-16T16:09:25.520Z,1.17
2023-03-16T16:11:54.915Z,0.73
2023-03-16T16:14:28.032Z,1.07
2023-03-16T16:16:58.283Z,0.93
2023-03-16T16:19:29.367Z,1.23
2023-03-16T16:21:58.796Z,1.30
2023-03-16T16:24:28.837Z,1.50
2023-03-16T16:26:58.270Z,1.63
2023-03-16T16:29:33.715Z,0.60
2023-03-16T16:32:03.174Z,0.70
2023-03-16T16:34:32.595Z,0.50
2023-03-16T16:37:02.040Z,0.90
2023-03-16T16:39:31.474Z,0.53
2023-03-16T16:42:00.971Z,0.57
2023-03-16T16:44:34.896Z,0.73
2023-03-16T16:47:03.952Z,0.70
2023-03-16T16:49:35.271Z,1.00
2023-03-16T16:52:05.039Z,1.17
2023-03-16T16:54:36.119Z,1.03
2023-03-16T16:57:06.945Z,0.90
2023-03-16T16:59:39.009Z,1.83
2023-03-16T17:02:31.354Z,1.03
2023-03-16T17:05:01.111Z,0.50
2023-03-16T17:07:30.797Z,0.60
2023-03-16T17:10:00.247Z,0.60
2023-03-16T17:12:29.703Z,0.63
2023-03-16T17:14:59.140Z,1.57
2023-03-16T17:17:28.773Z,0.83
2023-03-16T17:19:58.223Z,2.00
2023-03-16T17:22:28.578Z,0.50
2023-03-16T17:24:58.558Z,1.63
2023-03-16T17:27:32.132Z,0.60
2023-03-16T17:30:02.793Z,1.03
2023-03-16T17:32:32.817Z,0.60
2023-03-16T17:35:02.314Z,0.60
2023-03-16T17:37:32.022Z,0.60
2023-03-16T17:40:01.452Z,1.50
2023-03-16T17:42:30.956Z,1.60
2023-03-16T17:45:00.677Z,2.43
2023-03-16T17:47:33.723Z,2.27
2023-03-16T17:50:03.166Z,1.90
2023-03-16T17:52:33.254Z,1.33
2023-03-16T17:55:02.691Z,1.13
2023-03-16T17:57:35.208Z,0.77
2023-03-16T18:00:09.332Z,1.30
2023-03-16T18:03:07.000Z,0.50
2023-03-16T18:05:38.153Z,0.53
2023-03-16T18:08:26.176Z,2.00
2023-03-16T18:11:03.368Z,0.77
2023-03-16T18:13:39.665Z,0.80
2023-03-16T18:16:11.755Z,1.17
2023-03-16T18:18:43.609Z,1.37
2023-03-16T18:21:25.862Z,2.37
2023-03-16T18:23:56.106Z,1.23
2023-03-16T18:26:27.590Z,0.80
2023-03-16T18:28:57.967Z,1.50
2023-03-16T18:31:29.676Z,1.27
2023-03-16T18:34:02.614Z,1.77
2023-03-16T18:36:36.626Z,2.53
2023-03-16T18:39:13.629Z,2.03
2023-03-16T18:41:43.276Z,7.17
2023-03-16T18:44:22.708Z,8.50
2023-03-16T18:46:55.325Z,10.30
2023-03-16T18:49:34.926Z,7.20
2023-03-16T18:52:04.914Z,12.43
2023-03-16T18:54:38.963Z,17.90
2023-03-16T18:57:22.204Z,29.00
2023-03-16T18:59:52.318Z,20.17
2023-03-16T19:02:39.810Z,10.77
2023-03-16T19:05:19.736Z,5.57
2023-03-16T19:07:53.423Z,4.90
2023-03-16T19:10:30.309Z,4.47
2023-03-16T19:13:00.381Z,7.67
2023-03-16T19:15:35.046Z,7.23
2023-03-16T19:18:04.536Z,6.27
2023-03-16T19:20:35.425Z,3.30
2023-03-16T19:23:23.275Z,3.00
2023-03-16T19:25:54.562Z,2.17
2023-03-16T19:28:32.378Z,1.47
2023-03-16T19:31:17.638Z,1.93
2023-03-16T19:33:47.908Z,0.90
2023-03-16T19:36:21.889Z,1.30
2023-03-16T19:38:51.628Z,1.87
2023-03-16T19:41:34.423Z,1.60
2023-03-16T19:44:10.998Z,1.53
2023-03-16T19:46:41.156Z,1.20
2023-03-16T19:49:26.208Z,1.30
2023-03-16T19:51:57.839Z,1.37
2023-03-16T19:54:33.503Z,1.00
2023-03-16T19:57:08.024Z,0.80
2023-03-16T19:59:37.592Z,1.47
2023-03-16T20:02:23.625Z,2.27
2023-03-16T20:04:54.666Z,4.77
2023-03-16T20:07:25.001Z,4.30
2023-03-16T20:09:54.553Z,3.20
2023-03-16T20:12:28.061Z,2.17
2023-03-16T20:14:59.784Z,2.90
2023-03-16T20:17:33.045Z,2.60
2023-03-16T20:20:02.474Z,1.77
2023-03-16T20:22:31.969Z,1.90
2023-03-16T20:25:02.384Z,2.10
2023-03-16T20:27:32.588Z,2.03
2023-03-16T20:30:02.055Z,1.47
2023-03-16T20:32:35.636Z,1.63
2023-03-16T20:35:05.442Z,1.00
2023-03-16T20:37:35.822Z,0.93
2023-03-16T20:40:06.689Z,1.10
2023-03-16T20:42:37.413Z,1.40
2023-03-16T20:45:26.103Z,1.37
2023-03-16T20:47:55.767Z,2.13
2023-03-16T20:50:31.436Z,1.73
2023-03-16T20:53:00.874Z,2.03
2023-03-16T20:55:31.536Z,1.80
2023-03-16T20:58:01.729Z,2.33
2023-03-16T21:00:39.071Z,2.37
2023-03-16T21:03:22.318Z,2.27
2023-03-16T21:05:59.894Z,2.00
2023-03-16T21:08:29.405Z,2.50
2023-03-16T21:11:00.335Z,2.30
2023-03-16T21:13:33.190Z,2.37
2023-03-16T21:16:23.603Z,3.00
2023-03-16T21:18:53.225Z,2.50
2023-03-16T21:21:23.124Z,2.03
2023-03-16T21:23:52.612Z,1.43
2023-03-16T21:26:28.811Z,1.80
2023-03-16T21:29:04.014Z,1.73
2023-03-16T21:31:33.921Z,2.43
2023-03-16T21:34:05.580Z,1.83
2023-03-16T21:36:35.426Z,2.93
2023-03-16T21:39:09.470Z,2.90
2023-03-16T21:41:38.920Z,2.77
2023-03-16T21:44:09.025Z,1.77
2023-03-16T21:46:38.846Z,1.97
2023-03-16T21:49:12.744Z,2.10
2023-03-16T21:51:43.193Z,2.53
2023-03-16T21:54:18.091Z,1.87
2023-03-16T21:56:47.995Z,1.57
2023-03-16T21:59:17.496Z,2.60
2023-03-16T22:02:00.628Z,2.30
2023-03-16T22:04:19.416Z,2.10
2023-03-16T22:06:48.864Z,1.73
2023-03-16T22:09:24.866Z,1.37
2023-03-16T22:11:54.348Z,1.57
2023-03-16T22:14:23.774Z,2.80
2023-03-16T22:16:53.232Z,2.23
2023-03-16T22:19:23.155Z,2.67
2023-03-16T22:21:52.663Z,2.10
2023-03-16T22:24:26.493Z,2.13
2023-03-16T22:26:56.791Z,1.40
2023-03-16T22:29:33.697Z,1.30
2023-03-16T22:32:11.062Z,1.87
2023-03-16T22:34:53.792Z,3.03
2023-03-16T22:37:27.912Z,2.47
2023-03-16T22:39:58.422Z,2.17
2023-03-16T22:42:40.241Z,1.90
2023-03-16T22:45:25.635Z,2.10
2023-03-16T22:47:57.159Z,2.00
2023-03-16T22:50:30.657Z,3.30
2023-03-16T22:53:05.143Z,1.97
2023-03-16T22:55:41.172Z,2.13
2023-03-16T22:58:17.935Z,1.60
2023-03-16T23:00:47.492Z,1.73
2023-03-16T23:03:23.229Z,1.73
2023-03-16T23:05:53.754Z,3.33
2023-03-16T23:08:26.575Z,1.97
2023-03-16T23:10:56.030Z,1.43
2023-03-16T23:13:27.354Z,2.60
2023-03-16T23:15:56.872Z,2.07
2023-03-16T23:18:27.837Z,2.93
2023-03-16T23:20:57.320Z,2.23
2023-03-16T23:23:27.524Z,2.40
2023-03-16T23:25:56.958Z,1.97
2023-03-16T23:28:26.468Z,2.43
2023-03-16T23:30:56.221Z,3.10
2023-03-16T23:33:25.861Z,2.83
2023-03-16T23:35:55.398Z,3.20
2023-03-16T23:38:24.813Z,2.60
2023-03-16T23:40:54.256Z,2.53
2023-03-16T23:43:23.697Z,2.30
2023-03-16T23:45:53.505Z,2.70
2023-03-16T23:48:23.569Z,2.47
2023-03-16T23:50:57.480Z,2.00
2023-03-16T23:53:26.999Z,3.30
2023-03-16T23:55:56.793Z,1.73
2023-03-16T23:58:26.386Z,1.90
